sensor_id;sensor_type;location;lat;lon;timestamp;pressure;altitude;pressure_sealevel;temperature;humidity
17362;BME280;8798;51.938;4.348;2023-01-09T00:01:14;98977.09;;;9.01;78.57
17362;BME280;8798;51.938;4.348;2023-01-09T00:03:42;98976.44;;;8.99;78.46
17362;BME280;8798;51.938;4.348;2023-01-09T00:06:10;98974.16;;;8.96;78.35
17362;BME280;8798;51.938;4.348;2023-01-09T00:08:38;98968.16;;;8.94;78.41
17362;BME280;8798;51.938;4.348;2023-01-09T00:11:06;98956.78;;;8.92;78.44
17362;BME280;8798;51.938;4.348;2023-01-09T00:13:34;98965.84;;;8.91;78.70
17362;BME280;8798;51.938;4.348;2023-01-09T00:16:03;98971.38;;;8.89;78.70
17362;BME280;8798;51.938;4.348;2023-01-09T00:18:32;98967.88;;;8.89;78.32
17362;BME280;8798;51.938;4.348;2023-01-09T00:21:00;98972.41;;;8.88;78.81
17362;BME280;8798;51.938;4.348;2023-01-09T00:23:28;98975.09;;;8.88;78.61
17362;BME280;8798;51.938;4.348;2023-01-09T00:26:01;98982.28;;;8.88;78.71
17362;BME280;8798;51.938;4.348;2023-01-09T00:28:29;98978.13;;;8.85;78.54
17362;BME280;8798;51.938;4.348;2023-01-09T00:30:57;98982.88;;;8.83;78.72
17362;BME280;8798;51.938;4.348;2023-01-09T00:33:28;98978.72;;;8.80;78.79
17362;BME280;8798;51.938;4.348;2023-01-09T00:35:58;98968.34;;;8.77;78.99
17362;BME280;8798;51.938;4.348;2023-01-09T00:38:26;98967.53;;;8.77;78.89
17362;BME280;8798;51.938;4.348;2023-01-09T00:40:54;98971.41;;;8.74;78.65
17362;BME280;8798;51.938;4.348;2023-01-09T00:43:24;98965.41;;;8.72;78.96
17362;BME280;8798;51.938;4.348;2023-01-09T00:45:53;98957.59;;;8.71;79.09
17362;BME280;8798;51.938;4.348;2023-01-09T00:48:22;98944.56;;;8.68;78.87
17362;BME280;8798;51.938;4.348;2023-01-09T00:50:54;98955.47;;;8.66;78.96
17362;BME280;8798;51.938;4.348;2023-01-09T00:53:28;98968.47;;;8.69;78.80
17362;BME280;8798;51.938;4.348;2023-01-09T00:55:58;99010.38;;;8.77;78.70
17362;BME280;8798;51.938;4.348;2023-01-09T00:58:27;99033.09;;;8.81;78.89
17362;BME280;8798;51.938;4.348;2023-01-09T01:00:55;99041.75;;;8.83;79.20
17362;BME280;8798;51.938;4.348;2023-01-09T01:03:23;99030.56;;;8.79;78.93
17362;BME280;8798;51.938;4.348;2023-01-09T01:05:51;99043.78;;;8.81;79.26
17362;BME280;8798;51.938;4.348;2023-01-09T01:08:38;99056.63;;;8.86;78.84
17362;BME280;8798;51.938;4.348;2023-01-09T01:11:08;99079.31;;;8.90;78.88
17362;BME280;8798;51.938;4.348;2023-01-09T01:13:37;99098.53;;;8.93;78.98
17362;BME280;8798;51.938;4.348;2023-01-09T01:16:06;99117.06;;;8.95;78.77
17362;BME280;8798;51.938;4.348;2023-01-09T01:18:34;99132.78;;;8.98;79.26
17362;BME280;8798;51.938;4.348;2023-01-09T01:21:05;99148.50;;;9.01;79.03
17362;BME280;8798;51.938;4.348;2023-01-09T01:23:33;99143.31;;;8.99;78.93
17362;BME280;8798;51.938;4.348;2023-01-09T01:26:06;99150.50;;;8.99;78.85
17362;BME280;8798;51.938;4.348;2023-01-09T01:28:34;99148.66;;;8.99;79.37
17362;BME280;8798;51.938;4.348;2023-01-09T01:31:02;99153.19;;;8.99;78.99
17362;BME280;8798;51.938;4.348;2023-01-09T01:33:31;99128.00;;;8.93;79.37
17362;BME280;8798;51.938;4.348;2023-01-09T01:36:01;99104.63;;;8.87;79.19
17362;BME280;8798;51.938;4.348;2023-01-09T01:38:29;99091.78;;;8.82;79.15
17362;BME280;8798;51.938;4.348;2023-01-09T01:40:57;99094.66;;;8.81;78.83
17362;BME280;8798;51.938;4.348;2023-01-09T01:43:26;99104.34;;;8.82;79.67
17362;BME280;8798;51.938;4.348;2023-01-09T01:45:54;99095.66;;;8.80;78.92
17362;BME280;8798;51.938;4.348;2023-01-09T01:48:27;99092.34;;;8.78;78.92
17362;BME280;8798;51.938;4.348;2023-01-09T01:50:58;99073.97;;;8.75;79.06
17362;BME280;8798;51.938;4.348;2023-01-09T01:53:29;99076.84;;;8.73;79.48
17362;BME280;8798;51.938;4.348;2023-01-09T01:56:04;99070.00;;;8.71;79.11
17362;BME280;8798;51.938;4.348;2023-01-09T01:58:37;99080.72;;;8.71;79.32
17362;BME280;8798;51.938;4.348;2023-01-09T02:01:08;99088.38;;;8.74;79.51
17362;BME280;8798;51.938;4.348;2023-01-09T02:03:36;99096.41;;;8.74;79.25
17362;BME280;8798;51.938;4.348;2023-01-09T02:06:06;99096.56;;;8.72;79.28
17362;BME280;8798;51.938;4.348;2023-01-09T02:08:35;99096.78;;;8.71;78.96
17362;BME280;8798;51.938;4.348;2023-01-09T02:11:04;99093.25;;;8.70;79.02
17362;BME280;8798;51.938;4.348;2023-01-09T02:13:35;99102.94;;;8.71;79.42
17362;BME280;8798;51.938;4.348;2023-01-09T02:16:15;99111.81;;;8.72;78.92
17362;BME280;8798;51.938;4.348;2023-01-09T02:18:48;99095.09;;;8.70;79.09
17362;BME280;8798;51.938;4.348;2023-01-09T02:21:33;99091.97;;;8.66;79.19
17362;BME280;8798;51.938;4.348;2023-01-09T02:24:21;99082.63;;;8.62;79.61
17362;BME280;8798;51.938;4.348;2023-01-09T02:27:18;99074.16;;;8.58;79.20
17362;BME280;8798;51.938;4.348;2023-01-09T02:30:15;99075.81;;;8.59;79.43
17362;BME280;8798;51.938;4.348;2023-01-09T02:32:57;99086.50;;;8.59;79.00
17362;BME280;8798;51.938;4.348;2023-01-09T02:35:40;99078.66;;;8.58;79.43
17362;BME280;8798;51.938;4.348;2023-01-09T02:38:16;99091.03;;;8.59;79.15
17362;BME280;8798;51.938;4.348;2023-01-09T02:40:53;99098.03;;;8.60;79.38
17362;BME280;8798;51.938;4.348;2023-01-09T02:43:23;99104.03;;;8.62;79.68
17362;BME280;8798;51.938;4.348;2023-01-09T02:45:53;99113.75;;;8.63;79.22
17362;BME280;8798;51.938;4.348;2023-01-09T02:48:21;99119.72;;;8.65;79.23
17362;BME280;8798;51.938;4.348;2023-01-09T02:50:58;99126.94;;;8.65;79.06
17362;BME280;8798;51.938;4.348;2023-01-09T02:53:59;99137.47;;;8.66;79.33
17362;BME280;8798;51.938;4.348;2023-01-09T02:56:44;99142.00;;;8.66;79.48
17362;BME280;8798;51.938;4.348;2023-01-09T02:59:23;99153.31;;;8.68;79.67
17362;BME280;8798;51.938;4.348;2023-01-09T03:02:06;99156.00;;;8.68;79.43
17362;BME280;8798;51.938;4.348;2023-01-09T03:04:43;99152.69;;;8.66;79.55
17362;BME280;8798;51.938;4.348;2023-01-09T03:07:19;99162.38;;;8.67;79.31
17362;BME280;8798;51.938;4.348;2023-01-09T03:09:50;99171.88;;;8.69;79.17
17362;BME280;8798;51.938;4.348;2023-01-09T03:12:22;99180.56;;;8.71;79.33
17362;BME280;8798;51.938;4.348;2023-01-09T03:14:54;99186.75;;;8.72;79.35
17362;BME280;8798;51.938;4.348;2023-01-09T03:17:28;99184.91;;;8.72;79.35
17362;BME280;8798;51.938;4.348;2023-01-09T03:20:00;99204.47;;;8.73;79.20
17362;BME280;8798;51.938;4.348;2023-01-09T03:22:29;99202.44;;;8.75;79.41
17362;BME280;8798;51.938;4.348;2023-01-09T03:24:57;99206.81;;;8.76;79.48
17362;BME280;8798;51.938;4.348;2023-01-09T03:27:25;99216.50;;;8.77;79.10
17362;BME280;8798;51.938;4.348;2023-01-09T03:29:53;99223.31;;;8.79;79.18
17362;BME280;8798;51.938;4.348;2023-01-09T03:32:22;99222.50;;;8.79;79.45
17362;BME280;8798;51.938;4.348;2023-01-09T03:34:51;99234.84;;;8.80;79.31
17362;BME280;8798;51.938;4.348;2023-01-09T03:37:19;99245.22;;;8.83;79.45
17362;BME280;8798;51.938;4.348;2023-01-09T03:39:47;99252.25;;;8.84;79.49
17362;BME280;8798;51.938;4.348;2023-01-09T03:42:14;99249.56;;;8.84;79.52
17362;BME280;8798;51.938;4.348;2023-01-09T03:44:42;99246.88;;;8.84;79.37
17362;BME280;8798;51.938;4.348;2023-01-09T03:47:10;99250.38;;;8.85;79.63
17362;BME280;8798;51.938;4.348;2023-01-09T03:49:38;99255.75;;;8.85;79.25
17362;BME280;8798;51.938;4.348;2023-01-09T03:52:07;99258.41;;;8.85;79.41
17362;BME280;8798;51.938;4.348;2023-01-09T03:54:35;99257.44;;;8.86;79.59
17362;BME280;8798;51.938;4.348;2023-01-09T03:57:04;99261.94;;;8.85;79.75
17362;BME280;8798;51.938;4.348;2023-01-09T03:59:32;99248.75;;;8.83;79.58
17362;BME280;8798;51.938;4.348;2023-01-09T04:02:00;99254.91;;;8.84;79.80
17362;BME280;8798;51.938;4.348;2023-01-09T04:04:29;99249.72;;;8.82;79.72
17362;BME280;8798;51.938;4.348;2023-01-09T04:06:57;99255.09;;;8.82;79.27
17362;BME280;8798;51.938;4.348;2023-01-09T04:09:26;99257.75;;;8.82;79.58
17362;BME280;8798;51.938;4.348;2023-01-09T04:11:54;99261.47;;;8.81;79.27
17362;BME280;8798;51.938;4.348;2023-01-09T04:14:22;99249.94;;;8.81;79.34
17362;BME280;8798;51.938;4.348;2023-01-09T04:16:50;99256.09;;;8.81;79.40
17362;BME280;8798;51.938;4.348;2023-01-09T04:19:18;99254.47;;;8.80;79.47
17362;BME280;8798;51.938;4.348;2023-01-09T04:21:45;99251.78;;;8.80;79.27
17362;BME280;8798;51.938;4.348;2023-01-09T04:24:13;99247.41;;;8.79;79.24
17362;BME280;8798;51.938;4.348;2023-01-09T04:26:42;99260.44;;;8.82;79.67
17362;BME280;8798;51.938;4.348;2023-01-09T04:29:10;99265.63;;;8.84;79.46
17362;BME280;8798;51.938;4.348;2023-01-09T04:31:38;99271.81;;;8.85;79.47
17362;BME280;8798;51.938;4.348;2023-01-09T04:34:06;99280.50;;;8.87;79.45
17362;BME280;8798;51.938;4.348;2023-01-09T04:36:33;99278.66;;;8.87;79.50
17362;BME280;8798;51.938;4.348;2023-01-09T04:39:02;99277.66;;;8.88;79.59
17362;BME280;8798;51.938;4.348;2023-01-09T04:41:30;99297.06;;;8.90;79.61
17362;BME280;8798;51.938;4.348;2023-01-09T04:44:18;99308.22;;;8.94;79.14
17362;BME280;8798;51.938;4.348;2023-01-09T04:46:47;99313.41;;;8.95;79.24
17362;BME280;8798;51.938;4.348;2023-01-09T04:49:16;99310.72;;;8.95;79.31
17362;BME280;8798;51.938;4.348;2023-01-09T04:51:44;99316.91;;;8.96;79.32
17362;BME280;8798;51.938;4.348;2023-01-09T04:54:12;99308.88;;;8.96;79.72
17362;BME280;8798;51.938;4.348;2023-01-09T04:56:40;99295.00;;;8.92;79.23
17362;BME280;8798;51.938;4.348;2023-01-09T04:59:08;99276.78;;;8.88;79.49
17362;BME280;8798;51.938;4.348;2023-01-09T05:01:37;99262.28;;;8.82;79.41
17362;BME280;8798;51.938;4.348;2023-01-09T05:04:05;99234.22;;;8.78;79.29
17362;BME280;8798;51.938;4.348;2023-01-09T05:06:33;99222.22;;;8.74;79.46
17362;BME280;8798;51.938;4.348;2023-01-09T05:09:02;99197.19;;;8.67;79.14
17362;BME280;8798;51.938;4.348;2023-01-09T05:11:29;99171.16;;;8.60;79.67
17362;BME280;8798;51.938;4.348;2023-01-09T05:13:57;99156.47;;;8.56;79.57
17362;BME280;8798;51.938;4.348;2023-01-09T05:16:25;99149.41;;;8.55;79.31
17362;BME280;8798;51.938;4.348;2023-01-09T05:18:54;99153.94;;;8.55;79.29
17362;BME280;8798;51.938;4.348;2023-01-09T05:21:23;99132.25;;;8.50;79.46
17362;BME280;8798;51.938;4.348;2023-01-09T05:23:50;99133.28;;;8.49;79.32
17362;BME280;8798;51.938;4.348;2023-01-09T05:26:19;99134.28;;;8.48;79.82
17362;BME280;8798;51.938;4.348;2023-01-09T05:28:49;99129.28;;;8.45;79.87
17362;BME280;8798;51.938;4.348;2023-01-09T05:31:18;99113.41;;;8.43;79.78
17362;BME280;8798;51.938;4.348;2023-01-09T05:33:46;99116.28;;;8.42;80.20
17362;BME280;8798;51.938;4.348;2023-01-09T05:36:15;99125.97;;;8.43;79.57
17362;BME280;8798;51.938;4.348;2023-01-09T05:38:43;99126.78;;;8.43;79.37
17362;BME280;8798;51.938;4.348;2023-01-09T05:41:11;99133.00;;;8.44;80.26
17362;BME280;8798;51.938;4.348;2023-01-09T05:43:38;99138.16;;;8.45;79.64
17362;BME280;8798;51.938;4.348;2023-01-09T05:46:06;99148.69;;;8.47;80.03
17362;BME280;8798;51.938;4.348;2023-01-09T05:48:34;99144.34;;;8.46;79.97
17362;BME280;8798;51.938;4.348;2023-01-09T05:51:03;99135.66;;;8.44;79.85
17362;BME280;8798;51.938;4.348;2023-01-09T05:53:32;99141.03;;;8.44;80.04
17362;BME280;8798;51.938;4.348;2023-01-09T05:56:00;99141.19;;;8.42;80.04
17362;BME280;8798;51.938;4.348;2023-01-09T05:58:28;99135.00;;;8.42;80.54
17362;BME280;8798;51.938;4.348;2023-01-09T06:00:57;99135.19;;;8.40;80.26
17362;BME280;8798;51.938;4.348;2023-01-09T06:03:24;99139.72;;;8.39;80.73
17362;BME280;8798;51.938;4.348;2023-01-09T06:05:52;99125.66;;;8.37;80.44
17362;BME280;8798;51.938;4.348;2023-01-09T06:08:20;99117.81;;;8.36;80.71
17362;BME280;8798;51.938;4.348;2023-01-09T06:10:49;99131.81;;;8.38;81.27
17362;BME280;8798;51.938;4.348;2023-01-09T06:13:17;99144.19;;;8.39;81.38
17362;BME280;8798;51.938;4.348;2023-01-09T06:15:46;99146.88;;;8.39;81.09
17362;BME280;8798;51.938;4.348;2023-01-09T06:18:15;99161.94;;;8.40;81.76
17362;BME280;8798;51.938;4.348;2023-01-09T06:20:43;99159.09;;;8.42;82.03
17362;BME280;8798;51.938;4.348;2023-01-09T06:23:11;99168.59;;;8.44;82.04
17362;BME280;8798;51.938;4.348;2023-01-09T06:25:39;99175.59;;;8.45;82.03
17362;BME280;8798;51.938;4.348;2023-01-09T06:28:08;99184.28;;;8.47;82.30
17362;BME280;8798;51.938;4.348;2023-01-09T06:30:36;99200.19;;;8.49;82.49
17362;BME280;8798;51.938;4.348;2023-01-09T06:33:04;99206.19;;;8.51;82.49
17362;BME280;8798;51.938;4.348;2023-01-09T06:35:32;99220.03;;;8.54;82.70
17362;BME280;8798;51.938;4.348;2023-01-09T06:38:00;99229.53;;;8.57;82.81
17362;BME280;8798;51.938;4.348;2023-01-09T06:40:28;99239.22;;;8.58;83.15
17362;BME280;8798;51.938;4.348;2023-01-09T06:42:56;99259.47;;;8.60;82.98
17362;BME280;8798;51.938;4.348;2023-01-09T06:45:25;99265.28;;;8.64;83.39
17362;BME280;8798;51.938;4.348;2023-01-09T06:47:53;99281.81;;;8.68;83.45
17362;BME280;8798;51.938;4.348;2023-01-09T06:50:21;99292.19;;;8.71;83.39
17362;BME280;8798;51.938;4.348;2023-01-09T06:52:49;99311.38;;;8.74;83.35
17362;BME280;8798;51.938;4.348;2023-01-09T06:55:17;99321.91;;;8.76;83.75
17362;BME280;8798;51.938;4.348;2023-01-09T06:57:44;99322.75;;;8.76;84.09
17362;BME280;8798;51.938;4.348;2023-01-09T07:00:13;99320.25;;;8.75;84.02
17362;BME280;8798;51.938;4.348;2023-01-09T07:02:42;99320.91;;;8.77;83.91
17362;BME280;8798;51.938;4.348;2023-01-09T07:05:10;99325.44;;;8.76;84.45
17362;BME280;8798;51.938;4.348;2023-01-09T07:07:39;99327.94;;;8.78;84.18
17362;BME280;8798;51.938;4.348;2023-01-09T07:10:09;99346.47;;;8.79;84.53
17362;BME280;8798;51.938;4.348;2023-01-09T07:12:37;99361.34;;;8.82;84.35
17362;BME280;8798;51.938;4.348;2023-01-09T07:15:06;99362.84;;;8.85;84.62
17362;BME280;8798;51.938;4.348;2023-01-09T07:17:34;99372.38;;;8.87;84.80
17362;BME280;8798;51.938;4.348;2023-01-09T07:20:04;99377.72;;;8.87;84.67
17362;BME280;8798;51.938;4.348;2023-01-09T07:22:32;99379.41;;;8.88;84.86
17362;BME280;8798;51.938;4.348;2023-01-09T07:25:00;99385.41;;;8.90;84.99
17362;BME280;8798;51.938;4.348;2023-01-09T07:27:28;99393.25;;;8.92;85.04
17362;BME280;8798;51.938;4.348;2023-01-09T07:29:55;99393.25;;;8.92;85.30
17362;BME280;8798;51.938;4.348;2023-01-09T07:32:24;99405.47;;;8.94;85.39
17362;BME280;8798;51.938;4.348;2023-01-09T07:34:52;99408.78;;;8.96;85.40
17362;BME280;8798;51.938;4.348;2023-01-09T07:37:21;99423.69;;;8.99;85.14
17362;BME280;8798;51.938;4.348;2023-01-09T07:39:49;99430.88;;;8.98;85.77
17362;BME280;8798;51.938;4.348;2023-01-09T07:42:17;99435.88;;;9.01;85.99
17362;BME280;8798;51.938;4.348;2023-01-09T07:44:45;99443.91;;;9.01;85.70
17362;BME280;8798;51.938;4.348;2023-01-09T07:47:12;99437.72;;;9.01;85.46
17362;BME280;8798;51.938;4.348;2023-01-09T07:49:40;99446.44;;;9.03;85.98
17362;BME280;8798;51.938;4.348;2023-01-09T07:52:08;99443.91;;;9.01;86.10
17362;BME280;8798;51.938;4.348;2023-01-09T07:54:37;99437.72;;;9.01;86.05
17362;BME280;8798;51.938;4.348;2023-01-09T07:57:05;99445.56;;;9.02;86.21
17362;BME280;8798;51.938;4.348;2023-01-09T07:59:33;99456.94;;;9.04;86.27
17362;BME280;8798;51.938;4.348;2023-01-09T08:02:01;99464.81;;;9.06;86.19
17362;BME280;8798;51.938;4.348;2023-01-09T08:04:31;99471.66;;;9.09;86.45
17362;BME280;8798;51.938;4.348;2023-01-09T08:06:58;99490.88;;;9.12;86.40
17362;BME280;8798;51.938;4.348;2023-01-09T08:09:28;99498.75;;;9.14;86.38
17362;BME280;8798;51.938;4.348;2023-01-09T08:11:57;99494.22;;;9.14;86.57
17362;BME280;8798;51.938;4.348;2023-01-09T08:14:25;99504.78;;;9.16;86.69
17362;BME280;8798;51.938;4.348;2023-01-09T08:16:53;99518.84;;;9.18;86.97
17362;BME280;8798;51.938;4.348;2023-01-09T08:19:21;99522.34;;;9.18;86.63
17362;BME280;8798;51.938;4.348;2023-01-09T08:21:49;99528.34;;;9.20;86.66
17362;BME280;8798;51.938;4.348;2023-01-09T08:24:17;99537.22;;;9.21;86.59
17362;BME280;8798;51.938;4.348;2023-01-09T08:26:45;99542.22;;;9.24;86.96
17362;BME280;8798;51.938;4.348;2023-01-09T08:29:14;99539.53;;;9.24;86.93
17362;BME280;8798;51.938;4.348;2023-01-09T08:31:42;99555.47;;;9.25;87.06
17362;BME280;8798;51.938;4.348;2023-01-09T08:34:09;99568.34;;;9.30;86.84
17362;BME280;8798;51.938;4.348;2023-01-09T08:36:37;99575.19;;;9.33;87.16
17362;BME280;8798;51.938;4.348;2023-01-09T08:39:05;99590.06;;;9.35;87.13
17362;BME280;8798;51.938;4.348;2023-01-09T08:41:33;99598.78;;;9.37;87.17
17362;BME280;8798;51.938;4.348;2023-01-09T08:44:19;99603.13;;;9.38;86.99
17362;BME280;8798;51.938;4.348;2023-01-09T08:47:14;99607.47;;;9.39;87.20
17362;BME280;8798;51.938;4.348;2023-01-09T08:49:42;99615.34;;;9.41;87.66
17362;BME280;8798;51.938;4.348;2023-01-09T08:52:10;99627.53;;;9.43;87.55
17362;BME280;8798;51.938;4.348;2023-01-09T08:54:39;99636.91;;;9.47;87.13
17362;BME280;8798;51.938;4.348;2023-01-09T08:57:06;99656.16;;;9.51;87.78
17362;BME280;8798;51.938;4.348;2023-01-09T08:59:36;99660.34;;;9.54;87.52
17362;BME280;8798;51.938;4.348;2023-01-09T09:02:03;99663.84;;;9.54;87.60
17362;BME280;8798;51.938;4.348;2023-01-09T09:04:31;99667.53;;;9.53;87.66
17362;BME280;8798;51.938;4.348;2023-01-09T09:06:59;99676.25;;;9.55;87.64
17362;BME280;8798;51.938;4.348;2023-01-09T09:09:27;99674.41;;;9.56;87.93
17362;BME280;8798;51.938;4.348;2023-01-09T09:11:54;99687.44;;;9.59;87.78
17362;BME280;8798;51.938;4.348;2023-01-09T09:14:22;99686.63;;;9.58;88.04
17362;BME280;8798;51.938;4.348;2023-01-09T09:17:09;99686.63;;;9.58;87.93
17362;BME280;8798;51.938;4.348;2023-01-09T09:19:37;99680.44;;;9.58;87.96
17362;BME280;8798;51.938;4.348;2023-01-09T09:22:08;99686.78;;;9.57;87.90
17362;BME280;8798;51.938;4.348;2023-01-09T09:24:35;99684.97;;;9.57;87.87
17362;BME280;8798;51.938;4.348;2023-01-09T09:27:03;99684.97;;;9.57;87.95
17362;BME280;8798;51.938;4.348;2023-01-09T09:29:31;99685.78;;;9.58;87.98
17362;BME280;8798;51.938;4.348;2023-01-09T09:31:59;99678.56;;;9.58;88.46
17362;BME280;8798;51.938;4.348;2023-01-09T09:34:28;99693.63;;;9.59;88.07
17362;BME280;8798;51.938;4.348;2023-01-09T09:36:56;99696.16;;;9.61;88.25
17362;BME280;8798;51.938;4.348;2023-01-09T09:39:24;99702.34;;;9.61;88.47
17362;BME280;8798;51.938;4.348;2023-01-09T09:42:14;99689.97;;;9.60;88.33
17362;BME280;8798;51.938;4.348;2023-01-09T09:45:23;99696.31;;;9.59;88.42
17362;BME280;8798;51.938;4.348;2023-01-09T09:48:04;99691.81;;;9.60;88.29
17362;BME280;8798;51.938;4.348;2023-01-09T09:50:56;99691.97;;;9.58;88.34
17362;BME280;8798;51.938;4.348;2023-01-09T09:53:34;99692.81;;;9.59;88.66
17362;BME280;8798;51.938;4.348;2023-01-09T09:56:04;99700.53;;;9.62;88.23
17362;BME280;8798;51.938;4.348;2023-01-09T09:58:35;99704.03;;;9.62;88.59
17362;BME280;8798;51.938;4.348;2023-01-09T10:01:05;99728.66;;;9.66;88.24
17362;BME280;8798;51.938;4.348;2023-01-09T10:03:34;99749.41;;;9.72;88.44
17362;BME280;8798;51.938;4.348;2023-01-09T10:06:08;99757.09;;;9.75;88.62
17362;BME280;8798;51.938;4.348;2023-01-09T10:08:43;99757.94;;;9.76;88.62
17362;BME280;8798;51.938;4.348;2023-01-09T10:11:17;99754.59;;;9.74;88.38
17362;BME280;8798;51.938;4.348;2023-01-09T10:13:47;99766.81;;;9.76;88.67
17362;BME280;8798;51.938;4.348;2023-01-09T10:17:04;99778.03;;;9.80;88.81
17362;BME280;8798;51.938;4.348;2023-01-09T10:22:43;99804.16;;;9.86;88.49
17362;BME280;8798;51.938;4.348;2023-01-09T10:25:21;99817.22;;;9.89;88.41
17362;BME280;8798;51.938;4.348;2023-01-09T10:28:05;99823.44;;;9.89;88.90
17362;BME280;8798;51.938;4.348;2023-01-09T10:30:43;99817.22;;;9.89;88.52
17362;BME280;8798;51.938;4.348;2023-01-09T10:33:30;99821.44;;;9.92;88.80
17362;BME280;8798;51.938;4.348;2023-01-09T10:36:17;99837.16;;;9.95;88.83
17362;BME280;8798;51.938;4.348;2023-01-09T10:38:54;99863.28;;;10.01;89.02
17362;BME280;8798;51.938;4.348;2023-01-09T10:41:27;99882.59;;;10.04;88.94
17362;BME280;8798;51.938;4.348;2023-01-09T10:44:03;99895.47;;;10.09;88.72
17362;BME280;8798;51.938;4.348;2023-01-09T10:46:36;99919.94;;;10.14;88.74
17362;BME280;8798;51.938;4.348;2023-01-09T10:49:10;99935.69;;;10.17;88.64
17362;BME280;8798;51.938;4.348;2023-01-09T10:51:44;99939.06;;;10.19;89.22
17362;BME280;8798;51.938;4.348;2023-01-09T10:54:16;99944.06;;;10.22;88.85
17362;BME280;8798;51.938;4.348;2023-01-09T10:56:50;99961.69;;;10.25;88.87
17362;BME280;8798;51.938;4.348;2023-01-09T10:59:20;99978.28;;;10.28;88.51
17362;BME280;8798;51.938;4.348;2023-01-09T11:01:48;99971.75;;;10.31;89.08
17362;BME280;8798;51.938;4.348;2023-01-09T11:04:23;99985.00;;;10.32;88.74
17362;BME280;8798;51.938;4.348;2023-01-09T11:06:55;99984.66;;;10.36;88.76
17362;BME280;8798;51.938;4.348;2023-01-09T11:09:26;99996.91;;;10.38;88.95
17362;BME280;8798;51.938;4.348;2023-01-09T11:11:54;100000.25;;;10.40;88.96
17362;BME280;8798;51.938;4.348;2023-01-09T11:14:23;100013.50;;;10.42;89.04
17362;BME280;8798;51.938;4.348;2023-01-09T11:16:59;100018.53;;;10.45;89.16
17362;BME280;8798;51.938;4.348;2023-01-09T11:19:29;100028.91;;;10.48;88.88
17362;BME280;8798;51.938;4.348;2023-01-09T11:22:06;100029.78;;;10.48;89.10
17362;BME280;8798;51.938;4.348;2023-01-09T11:24:36;100027.25;;;10.47;88.76
17362;BME280;8798;51.938;4.348;2023-01-09T11:27:25;100035.16;;;10.48;89.08
17362;BME280;8798;51.938;4.348;2023-01-09T11:30:13;100048.03;;;10.53;89.30
17362;BME280;8798;51.938;4.348;2023-01-09T11:32:43;100045.34;;;10.53;89.40
17362;BME280;8798;51.938;4.348;2023-01-09T11:35:18;100022.56;;;10.49;88.92
17362;BME280;8798;51.938;4.348;2023-01-09T11:37:48;99994.53;;;10.43;89.41
17362;BME280;8798;51.938;4.348;2023-01-09T11:40:24;99976.09;;;10.40;88.83
17362;BME280;8798;51.938;4.348;2023-01-09T11:43:13;99965.69;;;10.37;89.22
17362;BME280;8798;51.938;4.348;2023-01-09T11:45:43;99946.59;;;10.32;89.13
17362;BME280;8798;51.938;4.348;2023-01-09T11:48:31;99937.03;;;10.29;89.34
17362;BME280;8798;51.938;4.348;2023-01-09T11:51:02;99937.88;;;10.30;89.07
17362;BME280;8798;51.938;4.348;2023-01-09T11:53:44;99939.72;;;10.29;89.22
17362;BME280;8798;51.938;4.348;2023-01-09T11:56:16;99952.63;;;10.34;89.11
17362;BME280;8798;51.938;4.348;2023-01-09T11:58:44;99988.53;;;10.41;89.12
17362;BME280;8798;51.938;4.348;2023-01-09T12:01:41;99995.19;;;10.45;89.35
17362;BME280;8798;51.938;4.348;2023-01-09T12:04:20;100013.69;;;10.48;88.90
17362;BME280;8798;51.938;4.348;2023-01-09T12:07:01;100036.13;;;10.55;89.27
17362;BME280;8798;51.938;4.348;2023-01-09T12:09:40;100079.91;;;10.64;89.19
17362;BME280;8798;51.938;4.348;2023-01-09T12:12:19;100105.91;;;10.72;89.38
17362;BME280;8798;51.938;4.348;2023-01-09T12:15:03;100137.28;;;10.80;89.00
17362;BME280;8798;51.938;4.348;2023-01-09T12:17:50;100162.47;;;10.87;89.42
17362;BME280;8798;51.938;4.348;2023-01-09T12:20:37;100171.88;;;10.91;89.36
17362;BME280;8798;51.938;4.348;2023-01-09T12:23:19;100182.28;;;10.94;88.60
17362;BME280;8798;51.938;4.348;2023-01-09T12:25:58;100158.59;;;10.89;89.14
17362;BME280;8798;51.938;4.348;2023-01-09T12:28:37;100134.09;;;10.84;89.54
17362;BME280;8798;51.938;4.348;2023-01-09T12:31:26;100098.34;;;10.75;89.38
17362;BME280;8798;51.938;4.348;2023-01-09T12:34:11;100019.00;;;10.57;89.36
17362;BME280;8798;51.938;4.348;2023-01-09T12:36:51;99984.13;;;10.48;89.07
17362;BME280;8798;51.938;4.348;2023-01-09T12:39:31;99968.34;;;10.45;88.66
17362;BME280;8798;51.938;4.348;2023-01-09T12:42:27;99944.91;;;10.39;88.90
17362;BME280;8798;51.938;4.348;2023-01-09T12:45:08;99941.38;;;10.39;89.41
17362;BME280;8798;51.938;4.348;2023-01-09T12:47:44;99946.75;;;10.39;88.83
17362;BME280;8798;51.938;4.348;2023-01-09T12:50:44;99972.88;;;10.45;89.35
17362;BME280;8798;51.938;4.348;2023-01-09T12:53:20;99994.53;;;10.51;89.15
17362;BME280;8798;51.938;4.348;2023-01-09T12:55:52;100011.94;;;10.55;89.34
17362;BME280;8798;51.938;4.348;2023-01-09T12:58:30;100019.00;;;10.57;89.05
17362;BME280;8798;51.938;4.348;2023-01-09T13:01:04;100019.00;;;10.57;89.30
17362;BME280;8798;51.938;4.348;2023-01-09T13:03:39;100017.16;;;10.57;89.03
17362;BME280;8798;51.938;4.348;2023-01-09T13:06:12;100016.31;;;10.57;88.89
17362;BME280;8798;51.938;4.348;2023-01-09T13:08:44;100026.72;;;10.60;89.41
17362;BME280;8798;51.938;4.348;2023-01-09T13:11:18;100034.63;;;10.61;89.00
17362;BME280;8798;51.938;4.348;2023-01-09T13:13:51;100010.13;;;10.56;89.23
17362;BME280;8798;51.938;4.348;2023-01-09T13:16:26;99989.16;;;10.51;89.12
17362;BME280;8798;51.938;4.348;2023-01-09T13:18:57;99973.41;;;10.48;88.65
17362;BME280;8798;51.938;4.348;2023-01-09T13:21:28;99955.13;;;10.44;89.04
17362;BME280;8798;51.938;4.348;2023-01-09T13:23:59;99949.09;;;10.42;89.33
17362;BME280;8798;51.938;4.348;2023-01-09T13:26:30;99961.31;;;10.44;89.25
17362;BME280;8798;51.938;4.348;2023-01-09T13:29:01;99976.25;;;10.47;89.11
17362;BME280;8798;51.938;4.348;2023-01-09T13:34:33;100012.13;;;10.54;88.80
17362;BME280;8798;51.938;4.348;2023-01-09T13:37:02;100028.56;;;10.59;89.57
17362;BME280;8798;51.938;4.348;2023-01-09T13:39:33;100054.72;;;10.65;88.83
17362;BME280;8798;51.938;4.348;2023-01-09T13:42:03;100089.63;;;10.73;88.85
17362;BME280;8798;51.938;4.348;2023-01-09T13:44:51;100084.28;;;10.73;89.08
17362;BME280;8798;51.938;4.348;2023-01-09T13:47:23;100085.09;;;10.74;88.83
17362;BME280;8798;51.938;4.348;2023-01-09T13:50:18;100082.56;;;10.72;89.04